sensor_id;sensor_type;location;lat;lon;timestamp;temperature;humidity
12309;DHT22;6217;48.150;17.142;2024-02-26T00:01:24;7.80;86.30
12309;DHT22;6217;48.150;17.142;2024-02-26T00:05:30;7.80;86.60
12309;DHT22;6217;48.150;17.142;2024-02-26T00:09:37;7.70;86.70
12309;DHT22;6217;48.150;17.142;2024-02-26T00:13:43;7.60;86.70
12309;DHT22;6217;48.150;17.142;2024-02-26T00:17:49;7.60;86.90
12309;DHT22;6217;48.150;17.142;2024-02-26T00:21:55;7.60;87.20
12309;DHT22;6217;48.150;17.142;2024-02-26T00:26:01;7.60;87.40
12309;DHT22;6217;48.150;17.142;2024-02-26T00:30:07;7.50;87.60
12309;DHT22;6217;48.150;17.142;2024-02-26T00:34:14;7.50;88.00
12309;DHT22;6217;48.150;17.142;2024-02-26T00:38:20;7.50;88.10
12309;DHT22;6217;48.150;17.142;2024-02-26T00:42:26;7.50;88.20
12309;DHT22;6217;48.150;17.142;2024-02-26T00:46:32;7.50;88.20
12309;DHT22;6217;48.150;17.142;2024-02-26T00:50:38;7.50;88.40
12309;DHT22;6217;48.150;17.142;2024-02-26T00:54:43;7.40;88.40
12309;DHT22;6217;48.150;17.142;2024-02-26T00:58:49;7.40;88.60
12309;DHT22;6217;48.150;17.142;2024-02-26T01:02:55;7.30;89.00
12309;DHT22;6217;48.150;17.142;2024-02-26T01:07:02;7.30;89.20
12309;DHT22;6217;48.150;17.142;2024-02-26T01:11:08;7.30;89.50
12309;DHT22;6217;48.150;17.142;2024-02-26T01:15:14;7.30;89.60
12309;DHT22;6217;48.150;17.142;2024-02-26T01:19:21;7.20;89.80
12309;DHT22;6217;48.150;17.142;2024-02-26T01:23:27;7.20;90.00
12309;DHT22;6217;48.150;17.142;2024-02-26T01:27:33;7.10;90.10
12309;DHT22;6217;48.150;17.142;2024-02-26T01:31:38;7.10;90.20
12309;DHT22;6217;48.150;17.142;2024-02-26T01:35:44;7.10;90.30
12309;DHT22;6217;48.150;17.142;2024-02-26T01:39:52;7.10;90.40
12309;DHT22;6217;48.150;17.142;2024-02-26T01:43:58;7.10;90.40
12309;DHT22;6217;48.150;17.142;2024-02-26T01:48:04;7.10;90.50
12309;DHT22;6217;48.150;17.142;2024-02-26T01:52:10;7.00;90.60
12309;DHT22;6217;48.150;17.142;2024-02-26T01:56:17;7.00;90.60
12309;DHT22;6217;48.150;17.142;2024-02-26T02:00:24;7.00;90.70
12309;DHT22;6217;48.150;17.142;2024-02-26T02:04:31;7.00;90.70
12309;DHT22;6217;48.150;17.142;2024-02-26T02:08:38;7.00;90.80
12309;DHT22;6217;48.150;17.142;2024-02-26T02:12:44;7.00;90.80
12309;DHT22;6217;48.150;17.142;2024-02-26T02:16:50;7.00;90.90
12309;DHT22;6217;48.150;17.142;2024-02-26T02:20:56;7.00;91.00
12309;DHT22;6217;48.150;17.142;2024-02-26T02:25:05;7.00;91.00
12309;DHT22;6217;48.150;17.142;2024-02-26T02:29:11;7.00;91.00
12309;DHT22;6217;48.150;17.142;2024-02-26T02:33:18;7.10;91.00
12309;DHT22;6217;48.150;17.142;2024-02-26T02:37:24;7.00;91.10
12309;DHT22;6217;48.150;17.142;2024-02-26T02:41:30;7.00;91.00
12309;DHT22;6217;48.150;17.142;2024-02-26T02:45:36;6.90;91.10
12309;DHT22;6217;48.150;17.142;2024-02-26T02:49:42;6.90;91.20
12309;DHT22;6217;48.150;17.142;2024-02-26T02:53:48;7.00;91.20
12309;DHT22;6217;48.150;17.142;2024-02-26T02:57:54;7.20;91.20
12309;DHT22;6217;48.150;17.142;2024-02-26T03:02:00;7.30;91.20
12309;DHT22;6217;48.150;17.142;2024-02-26T03:06:06;7.40;91.10
12309;DHT22;6217;48.150;17.142;2024-02-26T03:10:12;7.50;91.20
12309;DHT22;6217;48.150;17.142;2024-02-26T03:14:19;7.50;91.10
12309;DHT22;6217;48.150;17.142;2024-02-26T03:18:25;7.60;91.10
12309;DHT22;6217;48.150;17.142;2024-02-26T03:22:31;7.50;91.10
12309;DHT22;6217;48.150;17.142;2024-02-26T03:26:37;7.50;91.00
12309;DHT22;6217;48.150;17.142;2024-02-26T03:30:43;7.50;91.10
12309;DHT22;6217;48.150;17.142;2024-02-26T03:34:49;7.40;91.10
12309;DHT22;6217;48.150;17.142;2024-02-26T03:38:55;7.30;91.20
12309;DHT22;6217;48.150;17.142;2024-02-26T03:43:01;7.20;91.40
12309;DHT22;6217;48.150;17.142;2024-02-26T03:47:08;7.10;91.50
12309;DHT22;6217;48.150;17.142;2024-02-26T03:51:15;7.10;91.50
12309;DHT22;6217;48.150;17.142;2024-02-26T03:55:22;7.00;91.60
12309;DHT22;6217;48.150;17.142;2024-02-26T03:59:30;6.90;91.80
12309;DHT22;6217;48.150;17.142;2024-02-26T04:03:36;6.90;91.90
12309;DHT22;6217;48.150;17.142;2024-02-26T04:07:42;6.90;92.00
12309;DHT22;6217;48.150;17.142;2024-02-26T04:11:48;7.00;92.10
12309;DHT22;6217;48.150;17.142;2024-02-26T04:15:54;7.00;92.10
12309;DHT22;6217;48.150;17.142;2024-02-26T04:20:00;7.00;92.20
12309;DHT22;6217;48.150;17.142;2024-02-26T04:24:06;7.00;92.20
12309;DHT22;6217;48.150;17.142;2024-02-26T04:28:11;7.00;92.20
12309;DHT22;6217;48.150;17.142;2024-02-26T04:32:18;7.00;92.20
12309;DHT22;6217;48.150;17.142;2024-02-26T04:36:24;7.10;92.20
12309;DHT22;6217;48.150;17.142;2024-02-26T04:40:31;7.10;92.30
12309;DHT22;6217;48.150;17.142;2024-02-26T04:44:37;7.10;92.20
12309;DHT22;6217;48.150;17.142;2024-02-26T04:48:43;7.10;92.30
12309;DHT22;6217;48.150;17.142;2024-02-26T04:52:51;7.00;92.40
12309;DHT22;6217;48.150;17.142;2024-02-26T04:56:57;7.00;92.50
12309;DHT22;6217;48.150;17.142;2024-02-26T05:01:03;6.90;92.60
12309;DHT22;6217;48.150;17.142;2024-02-26T05:05:09;6.90;92.60
12309;DHT22;6217;48.150;17.142;2024-02-26T05:09:15;6.90;92.70
12309;DHT22;6217;48.150;17.142;2024-02-26T05:13:21;6.90;92.70
12309;DHT22;6217;48.150;17.142;2024-02-26T05:17:26;6.90;92.80
12309;DHT22;6217;48.150;17.142;2024-02-26T05:21:32;6.90;92.90
12309;DHT22;6217;48.150;17.142;2024-02-26T05:25:39;7.00;92.90
12309;DHT22;6217;48.150;17.142;2024-02-26T05:29:45;7.00;92.90
12309;DHT22;6217;48.150;17.142;2024-02-26T05:33:51;7.00;93.00
12309;DHT22;6217;48.150;17.142;2024-02-26T05:37:57;7.00;93.00
12309;DHT22;6217;48.150;17.142;2024-02-26T05:42:03;7.00;92.90
12309;DHT22;6217;48.150;17.142;2024-02-26T05:46:10;7.00;93.00
12309;DHT22;6217;48.150;17.142;2024-02-26T05:50:16;6.90;93.10
12309;DHT22;6217;48.150;17.142;2024-02-26T05:54:22;6.80;93.20
12309;DHT22;6217;48.150;17.142;2024-02-26T05:58:28;6.90;93.30
12309;DHT22;6217;48.150;17.142;2024-02-26T06:02:34;6.90;93.30
12309;DHT22;6217;48.150;17.142;2024-02-26T06:06:40;7.00;93.30
12309;DHT22;6217;48.150;17.142;2024-02-26T06:10:46;7.10;93.30
12309;DHT22;6217;48.150;17.142;2024-02-26T06:14:52;7.20;93.30
12309;DHT22;6217;48.150;17.142;2024-02-26T06:18:59;7.20;93.60
12309;DHT22;6217;48.150;17.142;2024-02-26T06:23:05;7.30;93.30
12309;DHT22;6217;48.150;17.142;2024-02-26T06:27:12;7.40;93.40
12309;DHT22;6217;48.150;17.142;2024-02-26T06:31:18;7.50;93.50
12309;DHT22;6217;48.150;17.142;2024-02-26T06:35:24;7.60;93.40
12309;DHT22;6217;48.150;17.142;2024-02-26T06:39:30;7.70;93.20
12309;DHT22;6217;48.150;17.142;2024-02-26T06:43:36;7.80;93.30
12309;DHT22;6217;48.150;17.142;2024-02-26T06:47:42;8.20;93.00
12309;DHT22;6217;48.150;17.142;2024-02-26T06:51:48;8.80;93.00
12309;DHT22;6217;48.150;17.142;2024-02-26T06:55:54;10.50;91.70
12309;DHT22;6217;48.150;17.142;2024-02-26T07:00:00;11.40;89.30
12309;DHT22;6217;48.150;17.142;2024-02-26T07:04:05;12.60;86.80
12309;DHT22;6217;48.150;17.142;2024-02-26T07:08:11;13.80;83.80
12309;DHT22;6217;48.150;17.142;2024-02-26T07:12:17;14.70;81.90
12309;DHT22;6217;48.150;17.142;2024-02-26T07:16:25;17.20;76.10
12309;DHT22;6217;48.150;17.142;2024-02-26T07:20:32;16.60;73.00
12309;DHT22;6217;48.150;17.142;2024-02-26T07:24:38;17.80;76.20
12309;DHT22;6217;48.150;17.142;2024-02-26T07:28:43;19.70;67.20
12309;DHT22;6217;48.150;17.142;2024-02-26T07:32:49;18.30;66.80
12309;DHT22;6217;48.150;17.142;2024-02-26T07:36:56;16.40;73.30
12309;DHT22;6217;48.150;17.142;2024-02-26T07:41:02;16.90;76.90
12309;DHT22;6217;48.150;17.142;2024-02-26T07:45:09;20.10;70.50
12309;DHT22;6217;48.150;17.142;2024-02-26T07:49:15;20.90;62.60
12309;DHT22;6217;48.150;17.142;2024-02-26T07:53:21;19.20;65.20
12309;DHT22;6217;48.150;17.142;2024-02-26T07:57:27;17.80;71.60
12309;DHT22;6217;48.150;17.142;2024-02-26T08:01:33;17.30;69.40
12309;DHT22;6217;48.150;17.142;2024-02-26T08:05:40;16.00;73.30
12309;DHT22;6217;48.150;17.142;2024-02-26T08:09:48;16.40;74.80
12309;DHT22;6217;48.150;17.142;2024-02-26T08:13:54;15.90;75.10
12309;DHT22;6217;48.150;17.142;2024-02-26T08:18:00;16.90;71.20
12309;DHT22;6217;48.150;17.142;2024-02-26T08:22:08;17.40;69.20
12309;DHT22;6217;48.150;17.142;2024-02-26T08:26:21;16.60;70.60
12309;DHT22;6217;48.150;17.142;2024-02-26T08:30:28;15.70;73.50
12309;DHT22;6217;48.150;17.142;2024-02-26T08:34:34;15.00;75.90
12309;DHT22;6217;48.150;17.142;2024-02-26T08:38:40;15.00;77.20
12309;DHT22;6217;48.150;17.142;2024-02-26T08:42:46;15.10;78.30
12309;DHT22;6217;48.150;17.142;2024-02-26T08:46:52;14.80;76.90
12309;DHT22;6217;48.150;17.142;2024-02-26T08:50:58;14.50;77.80
12309;DHT22;6217;48.150;17.142;2024-02-26T08:55:04;14.30;78.60
12309;DHT22;6217;48.150;17.142;2024-02-26T08:59:11;14.30;78.40
12309;DHT22;6217;48.150;17.142;2024-02-26T09:03:17;14.60;78.20
12309;DHT22;6217;48.150;17.142;2024-02-26T09:07:23;14.60;77.10
12309;DHT22;6217;48.150;17.142;2024-02-26T09:11:29;14.50;76.80
12309;DHT22;6217;48.150;17.142;2024-02-26T09:15:35;14.60;76.90
12309;DHT22;6217;48.150;17.142;2024-02-26T09:19:41;14.60;76.50
12309;DHT22;6217;48.150;17.142;2024-02-26T09:23:49;14.60;76.10
12309;DHT22;6217;48.150;17.142;2024-02-26T09:27:55;14.70;75.50
12309;DHT22;6217;48.150;17.142;2024-02-26T09:32:01;14.70;75.30
12309;DHT22;6217;48.150;17.142;2024-02-26T09:36:08;14.70;74.10
12309;DHT22;6217;48.150;17.142;2024-02-26T09:40:16;14.80;72.50
12309;DHT22;6217;48.150;17.142;2024-02-26T09:44:22;14.70;71.70
12309;DHT22;6217;48.150;17.142;2024-02-26T09:48:30;14.70;70.60
12309;DHT22;6217;48.150;17.142;2024-02-26T09:52:38;14.80;70.70
12309;DHT22;6217;48.150;17.142;2024-02-26T09:56:45;14.90;70.00
12309;DHT22;6217;48.150;17.142;2024-02-26T10:00:56;15.00;69.90
12309;DHT22;6217;48.150;17.142;2024-02-26T10:05:05;15.00;68.10
12309;DHT22;6217;48.150;17.142;2024-02-26T10:09:13;15.00;68.10
12309;DHT22;6217;48.150;17.142;2024-02-26T10:13:21;15.00;67.50
12309;DHT22;6217;48.150;17.142;2024-02-26T10:17:28;15.00;67.30
12309;DHT22;6217;48.150;17.142;2024-02-26T10:21:34;15.10;66.10
12309;DHT22;6217;48.150;17.142;2024-02-26T10:25:53;15.20;65.60
12309;DHT22;6217;48.150;17.142;2024-02-26T10:30:20;15.30;64.80
12309;DHT22;6217;48.150;17.142;2024-02-26T10:34:28;15.40;64.40
12309;DHT22;6217;48.150;17.142;2024-02-26T10:38:37;15.50;63.80
12309;DHT22;6217;48.150;17.142;2024-02-26T10:42:44;15.60;63.20
12309;DHT22;6217;48.150;17.142;2024-02-26T10:46:51;15.60;62.40
12309;DHT22;6217;48.150;17.142;2024-02-26T10:50:58;15.70;62.30
12309;DHT22;6217;48.150;17.142;2024-02-26T10:55:05;15.70;61.20
12309;DHT22;6217;48.150;17.142;2024-02-26T10:59:16;15.60;59.70
12309;DHT22;6217;48.150;17.142;2024-02-26T11:03:26;15.60;59.40
12309;DHT22;6217;48.150;17.142;2024-02-26T11:07:34;15.60;59.10
12309;DHT22;6217;48.150;17.142;2024-02-26T11:11:42;15.70;59.10
12309;DHT22;6217;48.150;17.142;2024-02-26T11:15:48;15.70;58.80
12309;DHT22;6217;48.150;17.142;2024-02-26T11:19:56;15.80;58.70
12309;DHT22;6217;48.150;17.142;2024-02-26T11:24:04;16.00;59.00
12309;DHT22;6217;48.150;17.142;2024-02-26T11:28:15;16.00;58.30
12309;DHT22;6217;48.150;17.142;2024-02-26T11:32:23;16.20;58.50
12309;DHT22;6217;48.150;17.142;2024-02-26T11:36:29;16.40;58.60
12309;DHT22;6217;48.150;17.142;2024-02-26T11:40:39;16.50;58.70
12309;DHT22;6217;48.150;17.142;2024-02-26T11:44:46;16.50;57.90
12309;DHT22;6217;48.150;17.142;2024-02-26T11:53:31;16.40;57.60
12309;DHT22;6217;48.150;17.142;2024-02-26T12:05:53;16.70;56.90
12309;DHT22;6217;48.150;17.142;2024-02-26T12:10:28;16.70;56.60
12309;DHT22;6217;48.150;17.142;2024-02-26T12:14:43;16.70;55.90
12309;DHT22;6217;48.150;17.142;2024-02-26T12:18:57;16.60;56.20
12309;DHT22;6217;48.150;17.142;2024-02-26T12:23:05;16.50;55.40
12309;DHT22;6217;48.150;17.142;2024-02-26T12:27:11;16.60;55.60
12309;DHT22;6217;48.150;17.142;2024-02-26T12:31:17;16.60;55.30
12309;DHT22;6217;48.150;17.142;2024-02-26T12:35:24;16.70;55.50
12309;DHT22;6217;48.150;17.142;2024-02-26T12:39:30;16.90;55.50
12309;DHT22;6217;48.150;17.142;2024-02-26T12:43:36;16.90;54.40
12309;DHT22;6217;48.150;17.142;2024-02-26T12:47:43;16.90;53.00
12309;DHT22;6217;48.150;17.142;2024-02-26T12:51:50;17.00;53.00
12309;DHT22;6217;48.150;17.142;2024-02-26T12:55:56;17.10;52.50
12309;DHT22;6217;48.150;17.142;2024-02-26T13:00:04;17.10;52.80
12309;DHT22;6217;48.150;17.142;2024-02-26T13:04:11;17.20;52.40
12309;DHT22;6217;48.150;17.142;2024-02-26T13:08:18;17.20;51.30
12309;DHT22;6217;48.150;17.142;2024-02-26T13:12:25;17.10;51.00
12309;DHT22;6217;48.150;17.142;2024-02-26T13:16:31;17.10;51.20
12309;DHT22;6217;48.150;17.142;2024-02-26T13:20:37;17.00;50.60
12309;DHT22;6217;48.150;17.142;2024-02-26T13:24:53;16.90;50.70
12309;DHT22;6217;48.150;17.142;2024-02-26T13:29:05;16.80;50.50
12309;DHT22;6217;48.150;17.142;2024-02-26T13:33:12;16.70;50.70
12309;DHT22;6217;48.150;17.142;2024-02-26T13:37:18;16.70;50.60
12309;DHT22;6217;48.150;17.142;2024-02-26T13:41:24;16.70;51.10
12309;DHT22;6217;48.150;17.142;2024-02-26T13:45:30;16.80;51.20
12309;DHT22;6217;48.150;17.142;2024-02-26T13:49:43;16.90;50.80
12309;DHT22;6217;48.150;17.142;2024-02-26T13:53:49;16.90;50.30
12309;DHT22;6217;48.150;17.142;2024-02-26T13:57:57;16.80;50.10
12309;DHT22;6217;48.150;17.142;2024-02-26T14:02:03;16.70;49.90
12309;DHT22;6217;48.150;17.142;2024-02-26T14:06:09;16.70;50.20
12309;DHT22;6217;48.150;17.142;2024-02-26T14:10:15;16.60;49.70
12309;DHT22;6217;48.150;17.142;2024-02-26T14:14:21;16.60;49.60
12309;DHT22;6217;48.150;17.142;2024-02-26T14:18:27;16.80;49.80
12309;DHT22;6217;48.150;17.142;2024-02-26T14:22:33;16.80;49.60
12309;DHT22;6217;48.150;17.142;2024-02-26T14:26:41;16.70;49.70
12309;DHT22;6217;48.150;17.142;2024-02-26T14:30:47;16.60;49.70
12309;DHT22;6217;48.150;17.142;2024-02-26T14:34:55;16.60;49.80
12309;DHT22;6217;48.150;17.142;2024-02-26T14:39:01;16.60;49.80
12309;DHT22;6217;48.150;17.142;2024-02-26T14:43:07;16.50;49.50
12309;DHT22;6217;48.150;17.142;2024-02-26T14:47:15;16.50;49.40
12309;DHT22;6217;48.150;17.142;2024-02-26T14:51:24;16.40;49.60
12309;DHT22;6217;48.150;17.142;2024-02-26T14:55:30;16.30;49.70
12309;DHT22;6217;48.150;17.142;2024-02-26T14:59:36;16.20;50.00
12309;DHT22;6217;48.150;17.142;2024-02-26T15:03:42;16.10;50.30
12309;DHT22;6217;48.150;17.142;2024-02-26T15:07:48;16.00;50.30
12309;DHT22;6217;48.150;17.142;2024-02-26T15:11:54;15.80;49.90
12309;DHT22;6217;48.150;17.142;2024-02-26T15:16:03;15.80;50.10
12309;DHT22;6217;48.150;17.142;2024-02-26T15:20:09;15.70;50.30
12309;DHT22;6217;48.150;17.142;2024-02-26T15:24:16;15.70;50.00
12309;DHT22;6217;48.150;17.142;2024-02-26T15:28:22;15.60;50.50
12309;DHT22;6217;48.150;17.142;2024-02-26T15:32:31;15.50;50.20
12309;DHT22;6217;48.150;17.142;2024-02-26T15:36:37;15.50;50.00
12309;DHT22;6217;48.150;17.142;2024-02-26T15:40:42;15.50;50.30
12309;DHT22;6217;48.150;17.142;2024-02-26T15:44:50;15.30;50.30
12309;DHT22;6217;48.150;17.142;2024-02-26T15:48:55;15.30;50.80
12309;DHT22;6217;48.150;17.142;2024-02-26T15:53:01;15.20;50.80
12309;DHT22;6217;48.150;17.142;2024-02-26T15:57:07;15.20;51.10
12309;DHT22;6217;48.150;17.142;2024-02-26T16:01:16;15.10;51.40
12309;DHT22;6217;48.150;17.142;2024-02-26T16:05:23;15.00;51.50
12309;DHT22;6217;48.150;17.142;2024-02-26T16:09:29;14.90;51.40
12309;DHT22;6217;48.150;17.142;2024-02-26T16:13:36;14.80;51.40
12309;DHT22;6217;48.150;17.142;2024-02-26T16:17:43;14.60;51.60
12309;DHT22;6217;48.150;17.142;2024-02-26T16:22:12;14.50;51.70
12309;DHT22;6217;48.150;17.142;2024-02-26T16:26:19;14.30;51.80
12309;DHT22;6217;48.150;17.142;2024-02-26T16:30:25;14.20;51.90
12309;DHT22;6217;48.150;17.142;2024-02-26T16:34:31;14.10;52.00
12309;DHT22;6217;48.150;17.142;2024-02-26T16:38:37;14.10;52.00
12309;DHT22;6217;48.150;17.142;2024-02-26T16:42:43;14.10;52.60
12309;DHT22;6217;48.150;17.142;2024-02-26T16:46:49;14.00;52.20
12309;DHT22;6217;48.150;17.142;2024-02-26T16:50:55;14.00;52.20
12309;DHT22;6217;48.150;17.142;2024-02-26T16:55:01;13.90;52.30
12309;DHT22;6217;48.150;17.142;2024-02-26T16:59:07;13.80;52.50
12309;DHT22;6217;48.150;17.142;2024-02-26T17:03:14;13.80;52.70
12309;DHT22;6217;48.150;17.142;2024-02-26T17:07:21;13.80;52.80
12309;DHT22;6217;48.150;17.142;2024-02-26T17:11:27;13.70;53.00
12309;DHT22;6217;48.150;17.142;2024-02-26T17:15:36;13.70;53.30
12309;DHT22;6217;48.150;17.142;2024-02-26T17:19:42;13.60;53.50
12309;DHT22;6217;48.150;17.142;2024-02-26T17:23:48;13.60;53.80
12309;DHT22;6217;48.150;17.142;2024-02-26T17:27:54;13.60;54.00
12309;DHT22;6217;48.150;17.142;2024-02-26T17:32:00;13.50;54.10
12309;DHT22;6217;48.150;17.142;2024-02-26T17:36:07;13.40;54.20
12309;DHT22;6217;48.150;17.142;2024-02-26T17:40:16;13.30;54.40
12309;DHT22;6217;48.150;17.142;2024-02-26T17:44:22;13.20;54.50
12309;DHT22;6217;48.150;17.142;2024-02-26T17:48:30;13.20;54.70
12309;DHT22;6217;48.150;17.142;2024-02-26T17:52:36;13.10;54.90
12309;DHT22;6217;48.150;17.142;2024-02-26T17:56:42;13.00;55.10
12309;DHT22;6217;48.150;17.142;2024-02-26T18:00:49;13.00;55.30
12309;DHT22;6217;48.150;17.142;2024-02-26T18:04:54;12.90;56.00
12309;DHT22;6217;48.150;17.142;2024-02-26T18:09:00;12.80;55.60
12309;DHT22;6217;48.150;17.142;2024-02-26T18:13:06;12.80;55.80
12309;DHT22;6217;48.150;17.142;2024-02-26T18:17:12;12.70;56.60
12309;DHT22;6217;48.150;17.142;2024-02-26T18:21:18;12.70;56.10
12309;DHT22;6217;48.150;17.142;2024-02-26T18:25:27;12.70;56.20
12309;DHT22;6217;48.150;17.142;2024-02-26T18:29:33;12.60;56.30
12309;DHT22;6217;48.150;17.142;2024-02-26T18:33:39;12.60;56.50
12309;DHT22;6217;48.150;17.142;2024-02-26T18:37:45;12.50;56.70
12309;DHT22;6217;48.150;17.142;2024-02-26T18:41:51;12.40;56.80
12309;DHT22;6217;48.150;17.142;2024-02-26T18:45:57;12.50;57.10
12309;DHT22;6217;48.150;17.142;2024-02-26T18:50:05;12.40;57.20
12309;DHT22;6217;48.150;17.142;2024-02-26T18:54:11;12.30;57.40
12309;DHT22;6217;48.150;17.142;2024-02-26T18:58:17;12.20;57.50
12309;DHT22;6217;48.150;17.142;2024-02-26T19:02:23;12.10;57.80
12309;DHT22;6217;48.150;17.142;2024-02-26T19:06:30;12.00;57.90
12309;DHT22;6217;48.150;17.142;2024-02-26T19:10:38;11.90;58.30
12309;DHT22;6217;48.150;17.142;2024-02-26T19:14:44;11.90;58.50
12309;DHT22;6217;48.150;17.142;2024-02-26T19:18:51;11.80;58.70
12309;DHT22;6217;48.150;17.142;2024-02-26T19:22:59;11.70;58.90
12309;DHT22;6217;48.150;17.142;2024-02-26T19:27:04;11.70;59.00
12309;DHT22;6217;48.150;17.142;2024-02-26T19:31:12;11.60;59.20
12309;DHT22;6217;48.150;17.142;2024-02-26T19:35:18;11.50;59.40
12309;DHT22;6217;48.150;17.142;2024-02-26T19:39:24;11.50;59.60
12309;DHT22;6217;48.150;17.142;2024-02-26T19:43:30;11.40;59.80
12309;DHT22;6217;48.150;17.142;2024-02-26T19:47:36;11.30;60.10
12309;DHT22;6217;48.150;17.142;2024-02-26T19:51:45;11.20;60.40
12309;DHT22;6217;48.150;17.142;2024-02-26T19:55:51;11.10;60.60
12309;DHT22;6217;48.150;17.142;2024-02-26T19:59:57;11.00;60.90
12309;DHT22;6217;48.150;17.142;2024-02-26T20:04:03;11.10;61.00
12309;DHT22;6217;48.150;17.142;2024-02-26T20:08:09;11.00;61.20
12309;DHT22;6217;48.150;17.142;2024-02-26T20:12:15;11.10;61.30
12309;DHT22;6217;48.150;17.142;2024-02-26T20:16:24;11.10;61.30
12309;DHT22;6217;48.150;17.142;2024-02-26T20:20:31;11.20;61.40
12309;DHT22;6217;48.150;17.142;2024-02-26T20:24:37;11.30;61.40
12309;DHT22;6217;48.150;17.142;2024-02-26T20:28:43;11.40;61.30
12309;DHT22;6217;48.150;17.142;2024-02-26T20:32:49;11.60;61.10
12309;DHT22;6217;48.150;17.142;2024-02-26T20:36:55;11.70;60.90
12309;DHT22;6217;48.150;17.142;2024-02-26T20:41:01;11.70;60.80
12309;DHT22;6217;48.150;17.142;2024-02-26T20:45:07;11.80;60.90
12309;DHT22;6217;48.150;17.142;2024-02-26T20:49:15;11.80;61.00
12309;DHT22;6217;48.150;17.142;2024-02-26T20:53:22;11.70;61.20
12309;DHT22;6217;48.150;17.142;2024-02-26T20:57:28;11.60;61.50
12309;DHT22;6217;48.150;17.142;2024-02-26T21:01:34;11.50;61.80
12309;DHT22;6217;48.150;17.142;2024-02-26T21:05:45;11.40;62.10
12309;DHT22;6217;48.150;17.142;2024-02-26T21:09:52;11.40;62.30
12309;DHT22;6217;48.150;17.142;2024-02-26T21:13:59;11.30;62.50
12309;DHT22;6217;48.150;17.142;2024-02-26T21:18:37;11.30;62.40
12309;DHT22;6217;48.150;17.142;2024-02-26T21:22:46;11.30;62.70
12309;DHT22;6217;48.150;17.142;2024-02-26T21:26:52;11.30;62.50
12309;DHT22;6217;48.150;17.142;2024-02-26T21:30:58;11.30;62.40
12309;DHT22;6217;48.150;17.142;2024-02-26T21:35:05;11.30;62.30
12309;DHT22;6217;48.150;17.142;2024-02-26T21:39:11;11.40;62.30
12309;DHT22;6217;48.150;17.142;2024-02-26T21:43:17;11.40;62.30
12309;DHT22;6217;48.150;17.142;2024-02-26T21:47:23;11.50;62.30
12309;DHT22;6217;48.150;17.142;2024-02-26T21:51:29;11.50;62.20
12309;DHT22;6217;48.150;17.142;2024-02-26T21:55:35;11.50;62.20
12309;DHT22;6217;48.150;17.142;2024-02-26T21:59:40;11.60;62.30
12309;DHT22;6217;48.150;17.142;2024-02-26T22:03:46;11.60;62.20
12309;DHT22;6217;48.150;17.142;2024-02-26T22:07:52;11.60;62.30
12309;DHT22;6217;48.150;17.142;2024-02-26T22:11:58;11.60;62.40
12309;DHT22;6217;48.150;17.142;2024-02-26T22:16:05;11.60;62.40
12309;DHT22;6217;48.150;17.142;2024-02-26T22:20:11;11.50;62.50
12309;DHT22;6217;48.150;17.142;2024-02-26T22:24:17;11.50;62.90
12309;DHT22;6217;48.150;17.142;2024-02-26T22:28:23;11.50;63.00
12309;DHT22;6217;48.150;17.142;2024-02-26T22:32:31;11.60;62.80
12309;DHT22;6217;48.150;17.142;2024-02-26T22:36:37;11.60;62.80
12309;DHT22;6217;48.150;17.142;2024-02-26T22:40:43;11.60;62.70
12309;DHT22;6217;48.150;17.142;2024-02-26T22:44:49;11.60;62.70
12309;DHT22;6217;48.150;17.142;2024-02-26T22:48:55;11.60;62.80
12309;DHT22;6217;48.150;17.142;2024-02-26T22:53:02;11.50;62.80
12309;DHT22;6217;48.150;17.142;2024-02-26T22:57:10;11.50;62.90
12309;DHT22;6217;48.150;17.142;2024-02-26T23:01:16;11.50;62.90
12309;DHT22;6217;48.150;17.142;2024-02-26T23:05:23;11.50;62.90
12309;DHT22;6217;48.150;17.142;2024-02-26T23:09:29;11.40;62.90
12309;DHT22;6217;48.150;17.142;2024-02-26T23:13:35;11.40;63.00
12309;DHT22;6217;48.150;17.142;2024-02-26T23:17:42;11.40;63.10
12309;DHT22;6217;48.150;17.142;2024-02-26T23:21:48;11.30;63.10
12309;DHT22;6217;48.150;17.142;2024-02-26T23:25:54;11.40;63.20
12309;DHT22;6217;48.150;17.142;2024-02-26T23:30:00;11.20;63.50
12309;DHT22;6217;48.150;17.142;2024-02-26T23:34:06;11.10;63.90
12309;DHT22;6217;48.150;17.142;2024-02-26T23:38:12;10.90;64.20
12309;DHT22;6217;48.150;17.142;2024-02-26T23:42:18;10.80;64.60
12309;DHT22;6217;48.150;17.142;2024-02-26T23:46:25;10.60;64.90
12309;DHT22;6217;48.150;17.142;2024-02-26T23:50:31;10.60;65.20
12309;DHT22;6217;48.150;17.142;2024-02-26T23:54:37;10.40;65.40
12309;DHT22;6217;48.150;17.142;2024-02-26T23:58:45;10.40;65.70
